Time;durP1;ratioP1;P1;durP2;ratioP2;P2;SDS_P1;SDS_P2;PMS_P1;PMS_P2;Temp;Humidity;BMP_temperature;BMP_pressure;BME280_temperature;BME280_humidity;BME280_pressure;Samples;Min_cycle;Max_cycle;Signal;HPM_P1;HPM_P2
2022/08/21 01:32:31;;;;;;;39.25;21.45;;;;;;;17.90;100.00;98982.14;1747550;80;21440;-70
2022/08/21 01:34:58;;;;;;;43.42;22.45;;;;;;;17.96;100.00;98983.61;1760850;80;21058;-68
2022/08/21 01:37:25;;;;;;;39.53;20.20;;;;;;;18.03;100.00;98985.87;1750003;79;21220;-69
2022/08/21 01:39:53;;;;;;;43.80;22.22;;;;;;;18.04;100.00;98985.30;1760693;79;21064;-68
2022/08/21 01:42:20;;;;;;;36.15;18.80;;;;;;;18.05;100.00;98975.47;1763423;79;21263;-69
2022/08/21 01:44:47;;;;;;;25.25;15.90;;;;;;;18.08;100.00;98978.92;1755010;79;21243;-68
2022/08/21 01:47:15;;;;;;;39.10;15.95;;;;;;;18.09;100.00;98979.72;1762164;79;20925;-69
2022/08/21 01:49:42;;;;;;;23.75;14.15;;;;;;;18.12;100.00;98975.80;1754612;79;21104;-68
2022/08/21 01:52:09;;;;;;;27.70;13.15;;;;;;;18.16;100.00;98967.27;1757909;79;20899;-68
2022/08/21 01:54:37;;;;;;;30.97;13.50;;;;;;;18.25;100.00;98961.85;1715893;80;22011;-69
2022/08/21 01:57:04;;;;;;;23.57;11.63;;;;;;;18.24;100.00;98946.66;1749127;80;21084;-69
2022/08/21 01:59:33;;;;;;;20.00;12.03;;;;;;;18.21;100.00;98948.09;1777151;79;21250;-69
2022/08/21 02:01:59;;;;;;;31.43;13.07;;;;;;;18.10;100.00;98945.44;1748088;80;21146;-69
2022/08/21 02:04:26;;;;;;;28.05;11.78;;;;;;;18.10;100.00;98945.44;1706031;80;20991;-69
2022/08/21 02:06:54;;;;;;;28.33;13.10;;;;;;;18.00;100.00;98964.19;1687482;82;21182;-69
2022/08/21 02:09:21;;;;;;;31.30;13.78;;;;;;;18.00;100.00;98964.19;1701789;83;21613;-69
2022/08/21 02:11:49;;;;;;;30.20;12.85;;;;;;;17.97;100.00;98959.41;1689361;82;20923;-69
2022/08/21 02:14:15;;;;;;;17.57;11.12;;;;;;;17.97;100.00;98958.61;1692423;82;21074;-69
2022/08/21 02:16:43;;;;;;;26.42;12.58;;;;;;;17.94;100.00;98955.97;1701800;81;20916;-70
2022/08/21 02:19:13;;;;;;;26.42;13.50;;;;;;;17.96;100.00;98952.39;1693315;82;21253;-69
2022/08/21 02:21:40;;;;;;;29.95;15.93;;;;;;;17.93;100.00;98953.03;1686713;81;20960;-71
2022/08/21 02:24:07;;;;;;;28.98;15.90;;;;;;;17.92;100.00;98951.41;1740630;81;20975;-70
2022/08/21 02:26:35;;;;;;;37.58;16.27;;;;;;;17.91;100.00;98951.75;1744758;81;21111;-69
2022/08/21 02:29:02;;;;;;;26.75;14.70;;;;;;;17.88;100.00;98948.29;1733921;81;20980;-69
2022/08/21 02:31:29;;;;;;;34.43;16.42;;;;;;;17.89;100.00;98952.62;1725411;81;21286;-69
2022/08/21 02:33:56;;;;;;;32.45;14.15;;;;;;;17.87;100.00;98951.56;1735122;80;21080;-69
2022/08/21 02:36:23;;;;;;;20.62;13.85;;;;;;;17.88;100.00;98949.64;1712967;80;20976;-69
2022/08/21 02:38:50;;;;;;;30.17;14.75;;;;;;;17.98;100.00;98943.37;1728829;82;21046;-70
2022/08/21 02:41:19;;;;;;;47.38;15.35;;;;;;;17.99;100.00;98938.73;1718273;81;20999;-69
2022/08/21 02:43:45;;;;;;;29.25;14.25;;;;;;;18.01;100.00;98944.66;1716864;80;21132;-70
2022/08/21 02:46:15;;;;;;;26.60;12.75;;;;;;;18.05;100.00;98949.67;1723192;80;20889;-70
2022/08/21 02:48:42;;;;;;;28.70;14.13;;;;;;;18.07;100.00;98950.16;1710000;80;21186;-68
2022/08/21 02:51:13;;;;;;;30.60;14.80;;;;;;;18.12;100.00;98951.92;1713302;81;21032;-69
2022/08/21 02:53:41;;;;;;;33.53;14.90;;;;;;;18.13;100.00;98948.89;1728856;81;21154;-68
2022/08/21 02:56:11;;;;;;;42.45;15.55;;;;;;;18.16;100.00;98953.69;1723286;80;21232;-68
2022/08/21 02:58:42;;;;;;;37.48;15.83;;;;;;;18.20;100.00;98956.02;1726137;80;20888;-69
2022/08/21 03:01:09;;;;;;;38.98;15.43;;;;;;;18.23;100.00;98961.37;1724408;81;20994;-69
2022/08/21 03:03:39;;;;;;;38.67;15.40;;;;;;;18.24;100.00;98963.52;1734904;81;21213;-69
2022/08/21 03:06:07;;;;;;;34.67;15.98;;;;;;;18.29;100.00;98970.94;1744168;81;20884;-69
2022/08/21 03:08:36;;;;;;;31.70;15.40;;;;;;;18.28;100.00;98975.35;1746945;81;21805;-69
2022/08/21 03:11:03;;;;;;;39.42;16.62;;;;;;;18.28;100.00;98973.99;1747734;81;21645;-68
2022/08/21 03:13:31;;;;;;;43.90;16.93;;;;;;;18.29;100.00;98971.50;1723191;81;20893;-67
2022/08/21 03:15:58;;;;;;;43.23;16.75;;;;;;;18.27;100.00;98975.09;1740553;81;20952;-68
2022/08/21 03:18:25;;;;;;;40.12;16.62;;;;;;;18.27;100.00;98979.17;1743043;81;20857;-68
2022/08/21 03:20:52;;;;;;;32.65;15.72;;;;;;;18.30;100.00;98986.67;1742076;81;21283;-68
2022/08/21 03:23:19;;;;;;;31.35;13.50;;;;;;;18.33;100.00;98984.70;1745867;81;20992;-69
2022/08/21 03:25:48;;;;;;;24.47;14.47;;;;;;;18.36;100.00;98982.70;1745319;81;21560;-69
2022/08/21 03:28:18;;;;;;;36.25;16.70;;;;;;;18.31;100.00;98974.70;1747233;81;21482;-68
2022/08/21 03:30:46;;;;;;;34.38;16.25;;;;;;;18.24;100.00;98973.81;1751245;81;21031;-69
2022/08/21 03:33:13;;;;;;;29.82;14.70;;;;;;;18.24;100.00;98972.45;1723311;80;21366;-69
2022/08/21 03:35:43;;;;;;;33.73;16.25;;;;;;;18.28;100.00;98976.14;1745162;81;21438;-67
2022/08/21 03:38:12;;;;;;;36.40;17.55;;;;;;;18.29;100.00;98976.38;1745296;81;21011;-66
2022/08/21 03:40:39;;;;;;;34.15;16.85;;;;;;;18.33;100.00;98973.27;1681032;83;21186;-66
2022/08/21 03:43:08;;;;;;;36.73;16.10;;;;;;;18.35;100.00;98971.04;1690428;83;21052;-66
2022/08/21 03:45:35;;;;;;;34.80;15.45;;;;;;;18.37;100.00;98972.87;1695410;82;21268;-65
2022/08/21 03:48:05;;;;;;;;;;;;;;;18.36;100.00;98974.55;1694202;81;21031;-66
2022/08/21 03:50:35;;;;;;;31.05;15.30;;;;;;;18.33;100.00;98975.19;1693424;83;20421;-65
2022/08/21 03:53:02;;;;;;;40.70;15.75;;;;;;;18.35;100.00;98981.91;1684885;82;21463;-66
2022/08/21 03:55:29;;;;;;;39.95;16.15;;;;;;;18.39;100.00;98986.92;1689997;82;21001;-65
2022/08/21 03:57:56;;;;;;;41.48;16.35;;;;;;;18.42;100.00;98993.63;1713243;82;21271;-65
2022/08/21 04:00:24;;;;;;;34.53;16.75;;;;;;;18.50;100.00;98991.49;1705077;82;20956;-65
2022/08/21 04:02:51;;;;;;;47.48;17.45;;;;;;;18.58;100.00;99000.20;1702465;81;21102;-64
2022/08/21 04:05:26;;;;;;;39.58;17.05;;;;;;;18.60;100.00;98992.53;1709220;82;21566;-65
2022/08/21 04:07:47;;;;;;;36.63;16.57;;;;;;;18.70;100.00;98993.33;1746052;81;21675;-65
2022/08/21 04:10:15;;;;;;;52.23;17.77;;;;;;;18.75;100.00;98993.16;1685471;82;21213;-66
2022/08/21 04:12:42;;;;;;;44.55;16.60;;;;;;;18.74;100.00;98991.55;1704172;82;21008;-69
2022/08/21 04:15:10;;;;;;;33.80;15.03;;;;;;;18.77;100.00;98982.80;1698321;82;21151;-68
2022/08/21 04:17:37;;;;;;;45.25;17.62;;;;;;;18.79;100.00;98975.92;1698352;82;21031;-68
2022/08/21 04:20:06;;;;;;;38.20;15.78;;;;;;;18.78;100.00;98976.23;1701672;81;20944;-68
2022/08/21 04:22:33;;;;;;;37.63;15.65;;;;;;;18.79;100.00;98973.20;1771906;80;21276;-68
2022/08/21 04:25:00;;;;;;;37.03;15.72;;;;;;;18.74;100.00;98970.62;1768282;80;20856;-68
2022/08/21 04:27:27;;;;;;;38.98;14.50;;;;;;;18.70;100.00;98973.73;1769630;80;21083;-69
2022/08/21 04:29:54;;;;;;;36.30;14.80;;;;;;;18.73;100.00;98965.50;1766156;79;20936;-68
2022/08/21 04:32:24;;;;;;;37.65;16.45;;;;;;;18.85;100.00;98962.38;1765827;80;20920;-69
2022/08/21 04:35:00;;;;;;;40.03;16.20;;;;;;;18.96;100.00;98964.75;1771834;80;21237;-68
2022/08/21 04:37:27;;;;;;;29.70;13.65;;;;;;;19.01;100.00;98974.92;1765625;80;21398;-68
2022/08/21 04:39:57;;;;;;;42.00;16.77;;;;;;;19.04;100.00;98985.70;1767448;80;20920;-68
2022/08/21 04:42:23;;;;;;;44.00;15.60;;;;;;;19.06;100.00;98982.90;1735596;81;21064;-69
2022/08/21 04:44:50;;;;;;;31.62;15.15;;;;;;;19.09;100.00;98977.38;1712814;80;21023;-69
2022/08/21 04:47:17;;;;;;;30.53;14.80;;;;;;;19.04;100.00;98972.91;1720691;80;21097;-68
2022/08/21 04:49:45;;;;;;;40.00;16.10;;;;;;;18.97;100.00;98973.16;1714769;81;21853;-69
2022/08/21 04:52:13;;;;;;;34.43;15.20;;;;;;;19.02;100.00;98976.50;1712357;80;20982;-69
2022/08/21 04:54:43;;;;;;;24.57;13.75;;;;;;;19.17;100.00;98982.55;1733612;81;21400;-71
2022/08/21 04:57:11;;;;;;;27.87;13.72;;;;;;;19.22;100.00;98976.36;1716674;80;21029;-69
2022/08/21 04:59:42;;;;;;;35.25;14.18;;;;;;;19.20;100.00;98961.48;1710602;81;21256;-69
2022/08/21 05:02:09;;;;;;;33.63;13.90;;;;;;;19.26;100.00;98967.00;1716727;81;21530;-69
2022/08/21 05:04:39;;;;;;;24.87;13.33;;;;;;;19.39;100.00;98974.71;1723677;80;21094;-70
2022/08/21 05:07:10;;;;;;;24.80;13.18;;;;;;;19.40;100.00;98976.30;1730056;80;20968;-69
2022/08/21 05:09:38;;;;;;;35.30;14.15;;;;;;;19.36;100.00;98978.88;1716356;81;21047;-71
2022/08/21 05:12:07;;;;;;;30.45;14.20;;;;;;;19.28;100.00;98974.28;1724553;80;21154;-70
2022/08/21 05:14:34;;;;;;;30.17;13.48;;;;;;;19.25;100.00;98978.99;1720278;80;20929;-70
2022/08/21 05:17:01;;;;;;;23.75;13.08;;;;;;;19.27;100.00;98976.75;1723218;80;21167;-70
2022/08/21 05:19:28;;;;;;;32.50;13.88;;;;;;;19.27;100.00;98983.55;1720821;80;21027;-69
2022/08/21 05:21:54;;;;;;;39.33;15.10;;;;;;;19.24;100.00;98981.48;1692332;80;20991;-70
2022/08/21 05:24:22;;;;;;;30.63;14.63;;;;;;;19.23;100.00;98988.03;1709300;83;21260;-70
2022/08/21 05:26:48;;;;;;;32.48;14.83;;;;;;;19.22;100.00;98986.45;1701357;83;21052;-70
2022/08/21 05:29:16;;;;;;;34.30;15.35;;;;;;;19.20;100.00;98983.25;1702718;83;21633;-70
2022/08/21 05:31:43;;;;;;;27.87;15.05;;;;;;;19.18;100.00;98989.03;1698053;83;21012;-70
2022/08/21 05:34:10;;;;;;;26.35;14.20;;;;;;;19.15;100.00;98992.95;1699625;82;21040;-71
2022/08/21 05:36:36;;;;;;;28.27;17.02;;;;;;;19.16;100.00;98987.20;1684953;83;21163;-71
2022/08/21 05:39:03;;;;;;;41.50;16.55;;;;;;;19.10;100.00;98981.67;1684858;82;20948;-70
2022/08/21 05:41:30;;;;;;;38.53;17.15;;;;;;;19.04;100.00;98981.63;1699240;83;21130;-69
2022/08/21 05:43:57;;;;;;;44.27;16.75;;;;;;;19.00;100.00;98977.95;1682069;83;21555;-69
2022/08/21 05:46:24;;;;;;;44.25;15.60;;;;;;;18.96;100.00;98973.73;1678549;84;20992;-68
2022/08/21 05:48:50;;;;;;;41.90;18.85;;;;;;;18.98;100.00;98972.82;1705941;83;21265;-68
2022/08/21 05:51:17;;;;;;;36.30;16.87;;;;;;;18.95;100.00;98976.20;1703629;81;21027;-68
2022/08/21 05:53:44;;;;;;;38.25;16.05;;;;;;;19.00;100.00;98976.02;1683695;83;21582;-68
2022/08/21 05:56:11;;;;;;;27.27;15.63;;;;;;;19.00;100.00;98977.38;1693563;83;20961;-68
2022/08/21 05:58:38;;;;;;;33.78;16.20;;;;;;;19.02;100.00;98971.06;1688844;83;20917;-69
2022/08/21 06:01:05;;;;;;;29.65;16.50;;;;;;;19.04;100.00;98972.91;1705512;81;21362;-69
2022/08/21 06:03:35;;;;;;;35.52;15.90;;;;;;;19.10;100.00;98979.52;1698151;83;20889;-69
2022/08/21 06:06:02;;;;;;;31.02;15.85;;;;;;;19.12;100.00;98981.36;1697486;81;21015;-68
2022/08/21 06:08:29;;;;;;;42.08;17.77;;;;;;;19.10;100.00;98979.52;1690748;83;20975;-68
2022/08/21 06:10:58;;;;;;;39.58;17.50;;;;;;;19.12;100.00;98977.28;1690871;81;21566;-68
2022/08/21 06:13:25;;;;;;;50.73;18.82;;;;;;;19.12;100.00;98982.73;1702446;81;21834;-70
2022/08/21 06:16:11;;;;;;;45.73;19.95;;;;;;;19.13;100.00;98989.75;1697486;83;21095;-68
2022/08/21 06:18:38;;;;;;;59.20;24.43;;;;;;;19.14;100.00;98988.64;1686507;81;20987;-69
2022/08/21 06:21:06;;;;;;;58.42;24.32;;;;;;;19.18;100.00;98984.13;1697095;82;21111;-69
2022/08/21 06:23:34;;;;;;;49.58;23.20;;;;;;;19.22;100.00;98983.73;1719808;81;21051;-69
2022/08/21 06:26:02;;;;;;;53.55;22.45;;;;;;;19.24;100.00;98980.92;1720359;80;21262;-69
2022/08/21 06:28:29;;;;;;;;;;;;;;;19.28;100.00;98981.88;1730541;80;20937;-69
2022/08/21 06:30:56;;;;;;;45.50;22.60;;;;;;;19.27;100.00;98972.67;1715929;80;20126;-69
2022/08/21 06:33:23;;;;;;;49.60;23.57;;;;;;;19.26;100.00;98972.45;1705830;81;20969;-67
2022/08/21 06:35:50;;;;;;;49.33;22.70;;;;;;;19.26;100.00;98973.80;1721113;80;21485;-67
2022/08/21 06:38:17;;;;;;;51.68;22.25;;;;;;;19.27;100.00;98978.91;1712935;81;21220;-70
2022/08/21 06:40:44;;;;;;;46.07;21.30;;;;;;;19.34;100.00;98981.13;1727503;81;21097;-69
2022/08/21 06:43:15;;;;;;;58.08;22.35;;;;;;;19.41;100.00;98982.78;1717142;81;21569;-70
2022/08/21 06:45:42;;;;;;;52.45;22.15;;;;;;;19.43;100.00;98984.63;1720997;81;21036;-71
2022/08/21 06:48:09;;;;;;;56.68;23.10;;;;;;;19.48;100.00;98984.44;1722120;80;21083;-68
2022/08/21 06:50:39;;;;;;;48.23;21.33;;;;;;;19.50;100.00;98988.20;1726531;82;21450;-70
2022/08/21 06:53:10;;;;;;;51.37;24.52;;;;;;;19.53;100.00;98986.75;1681959;81;20949;-69
2022/08/21 06:55:38;;;;;;;51.65;24.23;;;;;;;19.53;100.00;98983.47;1728213;82;21020;-69
2022/08/21 06:58:05;;;;;;;52.62;21.60;;;;;;;19.53;100.00;98989.47;1716743;81;20980;-70
2022/08/21 07:00:34;;;;;;;;;;;;;;;19.52;100.00;98986.50;1732661;80;21714;-69
2022/08/21 07:03:01;;;;;;;43.75;21.93;;;;;;;19.52;100.00;98983.78;1724536;81;21252;-67
2022/08/21 07:05:29;;;;;;;58.73;23.38;;;;;;;19.54;100.00;98982.89;1729732;80;21059;-67
2022/08/21 07:07:57;;;;;;;36.80;21.27;;;;;;;19.60;100.00;98980.21;1706120;82;20889;-66
2022/08/21 07:10:27;;;;;;;53.73;21.73;;;;;;;19.74;100.00;98974.00;1712272;80;20965;-67
2022/08/21 07:12:55;;;;;;;46.25;21.45;;;;;;;20.00;100.00;98970.34;1718944;80;20900;-66
2022/08/21 07:15:22;;;;;;;41.58;20.37;;;;;;;20.17;100.00;98972.95;1714884;81;21402;-66
2022/08/21 07:17:49;;;;;;;33.98;20.17;;;;;;;20.35;100.00;98974.40;1721423;80;21075;-68
2022/08/21 07:20:18;;;;;;;48.23;22.17;;;;;;;20.55;100.00;98981.57;1731311;80;21019;-67
2022/08/21 07:22:45;;;;;;;48.68;21.20;;;;;;;20.55;100.00;98975.58;1689466;82;20992;-67
2022/08/21 07:25:12;;;;;;;42.00;20.75;;;;;;;20.64;100.00;98976.06;1685255;81;21060;-67
2022/08/21 07:27:38;;;;;;;45.12;19.62;;;;;;;20.64;100.00;98976.06;1702588;83;21369;-67
2022/08/21 07:30:07;;;;;;;37.63;20.30;;;;;;;20.75;100.00;98978.04;1702408;83;20993;-66
2022/08/21 07:32:34;;;;;;;36.08;19.80;;;;;;;20.89;100.00;98970.11;1689583;83;20937;-66
2022/08/21 07:35:01;;;;;;;40.63;18.60;;;;;;;21.09;100.00;98965.73;1683867;84;20960;-65
2022/08/21 07:37:28;;;;;;;33.92;19.57;;;;;;;21.39;100.00;98963.66;1682604;84;21022;-67
2022/08/21 07:39:55;;;;;;;46.80;20.05;;;;;;;21.54;100.00;98966.29;1685478;83;21245;-66
2022/08/21 07:42:22;;;;;;;44.83;19.60;;;;;;;21.64;100.00;98962.30;1691099;83;21130;-67
2022/08/21 07:44:49;;;;;;;36.28;18.42;;;;;;;22.07;100.00;98966.34;1690157;82;21047;-66
2022/08/21 07:47:16;;;;;;;36.10;18.48;;;;;;;22.38;100.00;98963.00;1687360;82;21051;-66
2022/08/21 07:49:43;;;;;;;28.67;17.20;;;;;;;22.70;100.00;98973.47;1696788;83;20897;-69
2022/08/21 07:52:10;;;;;;;29.67;15.25;;;;;;;22.85;100.00;98972.71;1683082;83;21345;-67
2022/08/21 07:54:37;;;;;;;23.63;15.57;;;;;;;22.74;100.00;98976.33;1690866;82;20960;-67
2022/08/21 07:57:04;;;;;;;39.05;17.48;;;;;;;22.94;100.00;98967.67;1686678;83;21451;-65
2022/08/21 07:59:31;;;;;;;28.92;15.58;;;;;;;23.09;100.00;98962.23;1682572;84;21442;-65
2022/08/21 08:01:58;;;;;;;28.02;15.75;;;;;;;23.28;100.00;98972.50;1682868;83;20988;-64
2022/08/21 08:04:25;;;;;;;46.65;16.50;;;;;;;23.50;100.00;98969.72;1693887;83;21266;-64
2022/08/21 08:06:53;;;;;;;23.60;15.45;;;;;;;24.28;100.00;98973.27;1689973;81;20983;-66
2022/08/21 08:09:20;;;;;;;24.70;14.18;;;;;;;25.07;100.00;98976.22;1692592;81;21516;-66
2022/08/21 08:11:47;;;;;;;24.35;13.95;;;;;;;25.21;100.00;98983.37;1691700;83;21044;-67
2022/08/21 08:14:15;;;;;;;21.05;14.13;;;;;;;25.25;100.00;98978.71;1689613;81;20995;-66
2022/08/21 08:16:42;;;;;;;24.18;13.45;;;;;;;25.21;100.00;98981.41;1688669;83;21254;-67
2022/08/21 08:19:09;;;;;;;31.50;14.45;;;;;;;25.17;100.00;98979.75;1686691;82;21115;-65
2022/08/21 08:21:37;;;;;;;22.00;13.45;;;;;;;24.76;100.00;98981.52;1709868;81;20964;-67
2022/08/21 08:24:07;;;;;;;23.75;13.48;;;;;;;24.71;100.00;98978.28;1705660;81;20933;-67
2022/08/21 08:26:33;;;;;;;24.80;14.90;;;;;;;24.83;100.00;98978.70;1735409;81;20948;-66
2022/08/21 08:29:00;;;;;;;18.97;12.83;;;;;;;25.13;100.00;98977.48;1738058;81;21166;-67
2022/08/21 08:31:27;;;;;;;23.18;13.93;;;;;;;25.37;100.00;98972.24;1734147;82;21079;-68
2022/08/21 08:33:54;;;;;;;28.47;14.60;;;;;;;25.48;100.00;98973.78;1730807;80;20956;-65
2022/08/21 08:36:21;;;;;;;22.70;14.73;;;;;;;25.55;100.00;98974.72;1717132;80;20996;-68
2022/08/21 08:38:48;;;;;;;23.62;14.20;;;;;;;25.95;100.00;98976.12;1671518;82;37140;-68
2022/08/21 08:41:18;;;;;;;23.07;13.47;;;;;;;26.49;100.00;98972.72;1725288;81;22221;-67
2022/08/21 08:43:53;;;;;;;28.80;12.37;;;;;;;26.63;100.00;98974.30;1723787;81;21020;-68
2022/08/21 08:46:32;;;;;;;19.55;11.48;;;;;;;26.65;100.00;98971.16;1717954;80;21012;-68
2022/08/21 08:49:04;;;;;;;17.80;11.93;;;;;;;26.97;100.00;98965.98;1724727;80;21565;-69
2022/08/21 08:51:58;;;;;;;29.70;12.95;;;;;;;26.98;100.00;98964.83;1716224;79;20981;-69
2022/08/21 08:54:44;;;;;;;20.37;12.13;;;;;;;26.99;100.00;98969.16;1717012;80;21270;-68
2022/08/21 08:57:16;;;;;;;18.70;9.67;;;;;;;27.28;100.00;98969.47;1714575;80;20884;-68
2022/08/21 08:59:48;;;;;;;15.50;9.25;;;;;;;27.34;100.00;98974.26;1710559;80;21434;-67
2022/08/21 09:02:16;;;;;;;20.10;10.03;;;;;;;27.11;100.00;98973.61;1717423;80;21523;-67
2022/08/21 09:04:45;;;;;;;18.25;9.33;;;;;;;27.25;100.00;98971.02;1730603;80;21111;-68
2022/08/21 09:07:49;;;;;;;19.00;9.18;;;;;;;27.29;100.00;98968.28;1724832;81;21246;-67
2022/08/21 09:10:39;;;;;;;21.25;9.05;;;;;;;27.25;100.00;98963.34;1730393;80;21079;-68
2022/08/21 09:13:21;;;;;;;16.73;8.80;;;;;;;27.69;100.00;98964.69;1713559;81;21039;-68
2022/08/21 09:16:14;;;;;;;15.65;7.83;;;;;;;27.89;100.00;98963.86;1730194;80;21494;-68
2022/08/21 09:19:03;;;;;;;13.65;6.37;;;;;;;27.98;100.00;98963.53;1725316;80;20896;-68
2022/08/21 09:21:58;;;;;;;14.33;6.53;;;;;;;27.76;100.00;98965.33;1693608;82;21306;-69
2022/08/21 09:24:31;;;;;;;16.75;6.80;;;;;;;27.96;100.00;98957.60;1696087;83;21000;-69
2022/08/21 09:27:04;;;;;;;14.23;6.47;;;;;;;28.32;100.00;98959.96;1689400;83;20998;-69
2022/08/21 09:29:34;;;;;;;14.28;6.03;;;;;;;28.74;100.00;98961.91;1687325;83;21479;-68
2022/08/21 09:32:01;;;;;;;13.58;5.83;;;;;;;28.68;95.19;98953.20;1692986;81;20983;-70
2022/08/21 09:34:30;;;;;;;;;;;;;;;28.46;94.56;98954.31;1691035;82;21224;-72
2022/08/21 09:36:57;;;;;;;12.58;5.95;;;;;;;28.38;96.24;98957.61;1696531;81;20145;-72
2022/08/21 09:39:30;;;;;;;14.55;5.70;;;;;;;28.42;92.81;98963.95;1693731;82;21051;-69
2022/08/21 09:42:06;;;;;;;17.05;5.85;;;;;;;28.59;91.80;98953.59;1704678;81;20996;-69
2022/08/21 09:44:40;;;;;;;9.53;5.03;;;;;;;28.39;82.01;98958.61;1694565;83;21531;-71
2022/08/21 09:47:07;;;;;;;10.82;5.75;;;;;;;28.35;85.24;98959.77;1708573;82;21151;-70
2022/08/21 09:49:38;;;;;;;9.48;5.33;;;;;;;28.52;94.14;98961.05;1672750;83;20969;-69
2022/08/21 09:52:19;;;;;;;8.10;5.37;;;;;;;28.54;88.18;98965.58;1688768;83;21424;-69
2022/08/21 09:54:46;;;;;;;17.15;6.22;;;;;;;28.34;82.75;98958.17;1684489;83;20911;-71
2022/08/21 10:00:26;;;;;;;10.40;4.65;;;;;;;28.35;88.40;98949.52;1696847;83;21253;-72
2022/08/21 10:02:53;;;;;;;11.55;5.58;;;;;;;28.20;80.97;98960.30;1676113;83;21067;-71
2022/08/21 10:05:24;;;;;;;12.87;5.40;;;;;;;28.42;86.51;98972.22;1694650;83;21517;-72
2022/08/21 10:07:51;;;;;;;13.25;5.60;;;;;;;28.79;84.35;98966.45;1684378;81;21016;-70
2022/08/21 10:10:25;;;;;;;13.70;6.58;;;;;;;28.63;81.53;98960.48;1687965;81;21063;-70
2022/08/21 10:13:13;;;;;;;14.68;5.90;;;;;;;28.08;82.65;98957.27;1676714;83;22128;-71
2022/08/21 10:16:01;;;;;;;14.55;6.00;;;;;;;28.03;84.39;98956.27;1702578;81;21112;-71
2022/08/21 10:18:36;;;;;;;18.00;6.20;;;;;;;28.42;83.71;98950.93;1696550;83;21031;-71
2022/08/21 10:21:30;;;;;;;11.40;5.53;;;;;;;28.09;83.40;98945.05;1715542;80;20984;-71
2022/08/21 10:24:24;;;;;;;14.87;7.12;;;;;;;27.89;84.87;98954.20;1737155;80;20942;-68
2022/08/21 10:27:05;;;;;;;19.32;6.65;;;;;;;27.57;89.91;98944.31;1669974;83;21903;-69
2022/08/21 10:29:58;;;;;;;11.80;6.25;;;;;;;27.59;94.89;98941.97;1672271;83;21041;-69
2022/08/21 10:32:33;;;;;;;15.23;6.78;;;;;;;27.58;89.69;98948.64;1715981;82;21490;-69
2022/08/21 10:35:14;;;;;;;17.20;7.80;;;;;;;27.44;92.72;98941.64;1719276;81;21083;-69
2022/08/21 10:38:19;;;;;;;17.25;8.10;;;;;;;27.67;93.98;98950.48;1714613;80;20942;-68
2022/08/21 10:41:18;;;;;;;8.10;5.97;;;;;;;27.68;96.12;98943.78;1712047;82;21230;-69
2022/08/21 10:44:13;;;;;;;15.20;6.78;;;;;;;27.75;92.55;98949.94;1682023;82;20979;-70
2022/08/21 10:47:03;;;;;;;12.88;6.17;;;;;;;27.91;91.58;98958.75;1714774;82;21004;-74
2022/08/21 10:49:48;;;;;;;10.08;5.87;;;;;;;28.00;88.63;98947.36;1707624;82;20960;-72
2022/08/21 10:52:53;;;;;;;13.25;6.42;;;;;;;28.20;85.88;98946.50;1722051;81;21092;-70
2022/08/21 10:55:28;;;;;;;8.60;5.67;;;;;;;28.41;84.86;98945.79;1727319;81;21217;-71
2022/08/21 10:58:14;;;;;;;16.32;6.50;;;;;;;28.59;81.92;98948.06;1714070;80;21075;-71
2022/08/21 11:00:57;;;;;;;19.30;6.97;;;;;;;28.96;80.33;98942.04;1710992;81;21732;-71
2022/08/21 11:03:48;;;;;;;19.00;7.03;;;;;;;28.92;79.38;98944.00;1755783;79;20948;-70
2022/08/21 11:06:19;;;;;;;15.83;5.72;;;;;;;28.99;77.06;98946.77;1767277;79;20924;-69
2022/08/21 11:08:52;;;;;;;14.13;6.62;;;;;;;28.64;75.37;98946.90;1766260;79;21225;-68
2022/08/21 11:11:39;;;;;;;16.05;6.25;;;;;;;28.49;76.87;98944.66;1726957;80;21777;-70
2022/08/21 11:14:31;;;;;;;10.15;6.25;;;;;;;28.54;79.10;98942.92;1718240;80;21014;-70
2022/08/21 11:17:08;;;;;;;17.17;6.33;;;;;;;28.66;74.34;98945.11;1764022;79;21033;-71
2022/08/21 11:19:58;;;;;;;17.27;5.75;;;;;;;28.82;75.35;98942.80;1763603;79;20872;-70
2022/08/21 11:22:42;;;;;;;14.15;6.75;;;;;;;28.81;75.33;98939.25;1589329;88;22220;-69
2022/08/21 11:25:29;;;;;;;20.45;6.50;;;;;;;28.50;73.26;98940.73;1569354;88;21030;-70
2022/08/21 11:28:04;;;;;;;14.10;6.55;;;;;;;28.19;71.65;98931.11;1574736;88;20992;-69
2022/08/21 11:30:49;;;;;;;20.35;6.62;;;;;;;28.29;77.57;98935.09;1579184;87;21090;-71
2022/08/21 11:33:38;;;;;;;14.15;6.50;;;;;;;28.86;79.93;98932.55;1593261;88;21047;-69
2022/08/21 11:36:22;;;;;;;27.48;6.78;;;;;;;28.88;70.42;98939.05;1581109;87;21471;-70
2022/08/21 11:39:04;;;;;;;12.23;6.00;;;;;;;28.58;68.64;98938.19;1570703;88;21033;-71
2022/08/21 11:41:40;;;;;;;12.13;5.17;;;;;;;28.49;71.54;98931.45;1590220;87;21158;-72
2022/08/21 11:44:39;;;;;;;17.42;5.95;;;;;;;28.45;72.26;98929.26;1582130;87;21004;-67
2022/08/21 11:47:47;;;;;;;15.32;6.67;;;;;;;28.22;70.29;98928.95;1575980;87;21041;-69
2022/08/21 11:50:25;;;;;;;15.60;6.72;;;;;;;27.94;72.83;98922.12;1577458;87;21273;-70
2022/08/21 11:53:16;;;;;;;13.22;5.95;;;;;;;28.15;77.25;98921.45;1588291;87;21101;-69
2022/08/21 11:55:59;;;;;;;14.93;6.45;;;;;;;28.49;74.06;98920.41;1600147;87;21003;-72
2022/08/21 11:58:43;;;;;;;20.27;5.95;;;;;;;28.79;73.03;98918.13;1706146;82;21559;-71
2022/08/21 12:01:20;;;;;;;10.98;5.42;;;;;;;29.06;69.14;98916.42;1663457;83;21039;-69
2022/08/21 12:04:08;;;;;;;15.60;5.40;;;;;;;29.05;65.38;98914.80;1691015;83;21273;-71
2022/08/21 12:06:39;;;;;;;13.98;5.28;;;;;;;29.09;65.34;98917.02;1714561;82;20916;-69
2022/08/21 12:09:10;;;;;;;13.62;5.90;;;;;;;29.32;66.84;98916.61;1716230;82;21050;-70
2022/08/21 12:11:50;;;;;;;17.82;6.47;;;;;;;29.45;65.68;98915.03;1717570;82;20916;-67
2022/08/21 12:14:18;;;;;;;20.72;6.20;;;;;;;29.33;64.29;98909.91;1718088;82;21011;-67
2022/08/21 12:16:48;;;;;;;13.80;5.33;;;;;;;29.11;64.47;98908.34;1672591;83;21169;-69
2022/08/21 12:19:26;;;;;;;16.20;5.75;;;;;;;29.06;64.67;98914.45;1667515;82;21026;-70
2022/08/21 12:22:08;;;;;;;20.62;6.45;;;;;;;28.76;67.18;98904.30;1677732;82;20925;-70
2022/08/21 12:24:43;;;;;;;16.50;6.87;;;;;;;28.57;71.46;98909.02;1691156;82;20980;-69
2022/08/21 12:27:29;;;;;;;21.07;6.97;;;;;;;28.63;72.27;98898.37;1679288;81;21554;-70
2022/08/21 12:30:00;;;;;;;19.27;8.05;;;;;;;28.36;73.46;98906.94;1688434;82;21375;-69
2022/08/21 12:32:30;;;;;;;14.25;6.00;;;;;;;28.34;76.05;98898.84;1698779;82;21166;-69
2022/08/21 12:35:17;;;;;;;18.00;6.15;;;;;;;28.50;73.74;98896.56;1671889;85;21067;-70
2022/08/21 12:37:58;;;;;;;14.00;6.50;;;;;;;28.78;71.84;98892.28;1741117;81;21031;-68
2022/08/21 12:40:39;;;;;;;14.87;5.55;;;;;;;28.89;68.29;98901.98;1686398;83;20853;-70
2022/08/21 12:43:06;;;;;;;21.10;6.15;;;;;;;28.92;67.75;98891.52;1743186;81;21212;-69
2022/08/21 12:45:49;;;;;;;14.58;6.58;;;;;;;28.78;66.32;98897.20;1719974;80;20917;-70
2022/08/21 12:48:51;;;;;;;16.62;6.30;;;;;;;29.04;68.09;98900.20;1744522;81;20936;-69
2022/08/21 12:51:33;;;;;;;19.55;7.12;;;;;;;29.34;64.62;98887.98;1745010;81;20975;-71
2022/08/21 12:54:00;;;;;;;15.30;6.75;;;;;;;29.26;64.45;98896.87;1739366;81;21457;-69
2022/08/21 12:56:31;;;;;;;16.97;6.37;;;;;;;29.43;64.41;98894.51;1741963;80;21225;-67
2022/08/21 12:59:05;;;;;;;24.92;6.92;;;;;;;29.52;64.31;98905.95;1712610;80;20981;-69
2022/08/21 13:01:48;;;;;;;19.23;6.30;;;;;;;29.45;61.29;98899.83;1709957;81;20960;-71
2022/08/21 13:04:30;;;;;;;21.93;7.90;;;;;;;29.25;64.33;98898.64;1728116;80;21447;-72
2022/08/21 13:06:57;;;;;;;21.70;8.08;;;;;;;28.95;65.88;98901.77;1721708;80;21044;-68
2022/08/21 13:09:28;;;;;;;18.65;6.78;;;;;;;28.64;67.24;98890.30;1670995;80;22002;-70
2022/08/21 13:11:54;;;;;;;15.65;6.92;;;;;;;28.57;68.87;98891.66;1717261;81;20889;-71
2022/08/21 13:14:35;;;;;;;20.02;6.87;;;;;;;28.64;69.17;98884.78;1728083;81;20988;-70